Terminal Aerodrome Forecast
Issued by NWS

Home | Current Version | Previous Version | Text Only | Print | Product List | Glossary On
Versions: 1 2 3 4 5 6 7 8 9 10 11 12 13 14 15
000
FTUS46 KSGX 200600 RRA
TAFSNA
TAF
KSNA 200605Z 2006/2106 VRB04KT P6SM SCT015
     FM200800 VRB04KT P6SM BKN015
     FM201700 23006KT P6SM SCT020
     FM210500 VRB04KT P6SM BKN020=

USA.gov is the U.S. government's official web portal to all federal, state and local government web resources and services.